Time;durP1;ratioP1;P1;durP2;ratioP2;P2;SDS_P1;SDS_P2;PMS_P1;PMS_P2;Temp;Humidity;BMP_temperature;BMP_pressure;BME280_temperature;BME280_humidity;BME280_pressure;Samples;Min_cycle;Max_cycle;Signal;HPM_P1;HPM_P2
2022/05/22 00:01:24;;;;;;;35.78;13.82;;;;;;;11.01;93.22;101839.47;5093421;28;20043;-47
2022/05/22 00:03:50;;;;;;;28.05;13.82;;;;;;;11.03;93.95;101836.94;5092491;28;20528;-46
2022/05/22 00:06:15;;;;;;;35.70;14.15;;;;;;;11.04;93.91;101830.97;5093489;28;20032;-46
2022/05/22 00:08:40;;;;;;;33.40;13.45;;;;;;;11.08;94.07;101832.88;5093102;28;20020;-44
2022/05/22 00:11:05;;;;;;;29.83;13.00;;;;;;;11.12;94.02;101831.31;5092535;28;20024;-47
2022/05/22 00:13:31;;;;;;;28.10;14.23;;;;;;;11.14;93.46;101827.97;5093386;28;20035;-46
2022/05/22 00:18:40;;;;;;;38.92;14.40;;;;;;;11.16;92.49;101825.47;5092595;28;20494;-45
2022/05/22 00:21:05;;;;;;;28.92;13.43;;;;;;;11.20;92.53;101815.31;5093188;28;20028;-45
2022/05/22 00:23:33;;;;;;;35.78;14.68;;;;;;;11.22;92.55;101811.94;5092841;28;20032;-44
2022/05/22 00:25:58;;;;;;;38.63;15.15;;;;;;;11.26;92.41;101814.72;5092387;28;20031;-46
2022/05/22 00:28:23;;;;;;;35.47;15.40;;;;;;;11.29;92.78;101811.38;5092962;28;20024;-47
2022/05/22 00:30:49;;;;;;;37.00;15.27;;;;;;;11.29;91.26;101811.38;5091851;28;20028;-48
2022/05/22 00:33:14;;;;;;;36.47;14.68;;;;;;;11.28;90.78;101804.44;5093214;28;20081;-47
2022/05/22 00:35:40;;;;;;;36.55;15.85;;;;;;;11.31;91.64;101812.31;5092863;28;20056;-46
2022/05/22 00:38:05;;;;;;;37.55;14.52;;;;;;;11.26;90.63;101806.06;5092192;28;20020;-44
2022/05/22 00:40:31;;;;;;;38.13;14.57;;;;;;;11.20;91.37;101805.00;5093102;28;20028;-45
2022/05/22 00:42:56;;;;;;;42.42;15.55;;;;;;;11.17;92.11;101806.59;5092923;28;20827;-45
2022/05/22 00:45:21;;;;;;;45.03;15.30;;;;;;;11.17;91.35;101804.88;5092000;28;20047;-45
2022/05/22 00:47:46;;;;;;;37.60;14.00;;;;;;;11.13;91.02;101797.84;5092809;28;20024;-47
2022/05/22 00:50:12;;;;;;;34.10;13.60;;;;;;;11.09;91.45;101801.09;5092947;28;20024;-44
2022/05/22 00:52:58;;;;;;;38.70;14.90;;;;;;;11.05;90.32;101794.03;5091820;28;20090;-43
2022/05/22 00:55:28;;;;;;;36.08;13.45;;;;;;;10.96;90.33;101803.94;5092668;28;20483;-45
2022/05/22 00:58:01;;;;;;;37.28;14.73;;;;;;;10.89;91.36;101799.38;5092490;28;20038;-47
2022/05/22 01:00:30;;;;;;;42.08;15.27;;;;;;;10.85;91.30;101795.75;5092111;28;20054;-46
2022/05/22 01:05:43;;;;;;;37.63;16.10;;;;;;;10.69;90.54;101789.03;5092396;28;20097;-43
2022/05/22 01:08:09;;;;;;;34.35;15.25;;;;;;;10.61;91.28;101786.09;5092111;28;20073;-42
2022/05/22 01:10:42;;;;;;;45.40;17.60;;;;;;;10.63;91.67;101783.63;5092911;28;20028;-44
2022/05/22 01:13:08;;;;;;;55.28;19.15;;;;;;;10.57;92.13;101784.22;5092100;28;20032;-45
2022/05/22 01:15:34;;;;;;;49.38;19.80;;;;;;;10.60;91.86;101793.78;5093228;28;20032;-45
2022/05/22 01:17:59;;;;;;;41.50;17.23;;;;;;;10.53;91.56;101802.94;5096328;28;20031;-44
2022/05/22 01:20:25;;;;;;;44.53;18.65;;;;;;;10.50;91.54;101800.25;5095683;28;20108;-46
2022/05/22 01:22:50;;;;;;;53.13;20.02;;;;;;;10.46;91.81;101801.78;5096078;28;20016;-43
2022/05/22 01:25:15;;;;;;;51.17;18.60;;;;;;;10.37;91.85;101798.78;5096577;28;20016;-43
2022/05/22 01:27:40;;;;;;;52.55;19.95;;;;;;;10.37;92.47;101791.06;5095505;28;20024;-42
2022/05/22 01:30:14;;;;;;;47.83;18.95;;;;;;;10.26;91.65;101781.91;5096228;28;20038;-46
2022/05/22 01:32:43;;;;;;;44.42;18.45;;;;;;;10.16;91.68;101786.66;5096210;28;20051;-43
2022/05/22 01:35:10;;;;;;;51.30;18.80;;;;;;;10.13;92.35;101772.75;5095243;28;20028;-48
2022/05/22 01:37:35;;;;;;;49.23;19.33;;;;;;;10.03;92.35;101774.91;5096419;28;20020;-47
2022/05/22 01:40:00;;;;;;;44.28;19.55;;;;;;;10.05;93.18;101774.97;5096050;28;20270;-45
2022/05/22 01:42:26;;;;;;;49.88;20.35;;;;;;;9.97;92.63;101779.75;5095474;28;20024;-42
2022/05/22 01:44:51;;;;;;;52.05;20.77;;;;;;;9.92;92.58;101780.38;5095836;28;20031;-43
2022/05/22 01:47:16;;;;;;;47.67;19.90;;;;;;;9.79;92.43;101774.63;5095818;28;20450;-43
2022/05/22 01:49:42;;;;;;;51.55;21.83;;;;;;;9.79;94.04;101768.59;5095151;28;20028;-43
2022/05/22 01:52:07;;;;;;;59.40;21.73;;;;;;;9.73;93.77;101769.16;5096032;28;20028;-42
2022/05/22 01:54:32;;;;;;;40.58;20.73;;;;;;;9.67;93.53;101768.88;5095687;28;20020;-43
2022/05/22 01:56:58;;;;;;;50.90;20.90;;;;;;;9.61;93.51;101763.44;5094989;28;20085;-42
2022/05/22 01:59:23;;;;;;;56.03;21.58;;;;;;;9.53;93.05;101766.53;5095861;28;20020;-45
2022/05/22 02:01:48;;;;;;;50.85;21.35;;;;;;;9.53;94.75;101771.66;5095207;28;20078;-42
2022/05/22 02:04:13;;;;;;;52.75;22.48;;;;;;;9.51;95.10;101775.84;5095119;28;20095;-43
2022/05/22 02:08:19;;;;;;;56.03;23.15;;;;;;;9.47;95.12;101771.38;5095407;28;20043;-44
2022/05/22 02:09:24;;;;;;;61.03;23.77;;;;;;;9.38;94.66;101755.47;5094693;28;20483;-43
2022/05/22 02:11:49;;;;;;;55.03;24.63;;;;;;;9.36;95.01;101751.94;5095272;28;20028;-46
2022/05/22 02:14:15;;;;;;;53.40;22.90;;;;;;;9.32;94.88;101750.03;5096010;28;20039;-43
2022/05/22 02:16:40;;;;;;;49.75;22.83;;;;;;;9.20;94.17;101748.59;5094491;28;20028;-45
2022/05/22 02:19:05;;;;;;;45.35;22.80;;;;;;;9.12;93.91;101746.50;5095259;28;20028;-42
2022/05/22 02:21:32;;;;;;;52.67;22.85;;;;;;;9.02;93.88;101746.00;5095543;28;20544;-43
2022/05/22 02:23:57;;;;;;;50.13;21.15;;;;;;;8.96;94.27;101740.56;5094386;28;20142;-42
2022/05/22 02:26:22;;;;;;;56.22;22.25;;;;;;;8.88;94.37;101737.63;5095230;28;20432;-43
2022/05/22 02:28:47;;;;;;;52.45;22.38;;;;;;;8.81;94.78;101743.22;5093816;28;20522;-45
2022/05/22 02:31:13;;;;;;;45.33;22.05;;;;;;;8.73;94.81;101735.13;5094373;28;20027;-43
2022/05/22 02:33:38;;;;;;;46.72;22.48;;;;;;;8.70;94.78;101736.66;5094879;28;20043;-43
2022/05/22 02:36:06;;;;;;;49.95;23.75;;;;;;;8.68;95.42;101723.72;5094995;28;20479;-42
2022/05/22 02:38:31;;;;;;;;;;;;;;;8.72;93.17;101730.78;5094807;28;20032;-42
2022/05/22 02:40:57;;;;;;;49.78;22.60;;;;;;;8.56;95.05;101724.00;5094885;28;20260;-42
2022/05/22 02:43:22;;;;;;;46.25;22.20;;;;;;;8.51;95.64;101722.88;5094866;28;20170;-42
2022/05/22 02:45:47;;;;;;;58.38;24.33;;;;;;;8.49;95.98;101719.31;5094109;28;20406;-44
2022/05/22 02:48:13;;;;;;;57.75;23.08;;;;;;;8.51;96.96;101704.00;5094701;28;20016;-42
2022/05/22 02:50:39;;;;;;;53.78;23.13;;;;;;;8.42;96.63;101709.50;5094560;28;20032;-42
2022/05/22 02:53:05;;;;;;;52.10;25.00;;;;;;;8.39;96.61;101704.19;5094047;28;20040;-43
2022/05/22 02:55:30;;;;;;;48.15;22.15;;;;;;;8.31;96.36;101713.19;5094724;28;20405;-43
2022/05/22 02:57:55;;;;;;;52.22;23.80;;;;;;;8.26;96.13;101728.34;5094248;28;20418;-42
2022/05/22 03:00:24;;;;;;;54.53;23.13;;;;;;;8.18;96.33;101724.50;5093977;28;20153;-44
2022/05/22 03:02:50;;;;;;;49.50;22.80;;;;;;;8.14;96.76;101726.00;5094199;28;20099;-43
2022/05/22 03:05:15;;;;;;;51.58;23.10;;;;;;;8.14;96.76;101731.16;5094466;28;20020;-43
2022/05/22 03:07:41;;;;;;;51.50;24.63;;;;;;;8.14;97.79;101730.28;5093765;28;20027;-43
2022/05/22 03:10:09;;;;;;;49.78;23.55;;;;;;;8.10;97.85;101723.22;5094428;28;20066;-45
2022/05/22 03:12:35;;;;;;;46.30;20.30;;;;;;;8.05;97.67;101722.97;5093663;28;20047;-43
2022/05/22 03:15:02;;;;;;;40.65;20.15;;;;;;;8.02;97.80;101720.25;5093921;28;20121;-42
2022/05/22 03:17:27;;;;;;;36.88;20.15;;;;;;;7.97;97.55;101716.53;5094039;28;20815;-45
2022/05/22 03:19:53;;;;;;;43.17;19.25;;;;;;;7.90;97.27;101712.72;5093266;28;20035;-43
2022/05/22 03:22:18;;;;;;;37.97;19.27;;;;;;;7.89;97.38;101713.56;5094218;28;20407;-46
2022/05/22 03:24:43;;;;;;;38.08;20.05;;;;;;;7.92;98.20;101711.16;5093926;28;20020;-46
2022/05/22 03:27:12;;;;;;;52.13;23.88;;;;;;;7.95;99.46;101716.44;5093303;28;20020;-43
2022/05/22 03:29:38;;;;;;;59.00;24.38;;;;;;;7.99;99.62;101707.22;5093806;28;20024;-42
2022/05/22 03:32:04;;;;;;;54.70;25.30;;;;;;;8.00;99.67;101699.59;5093746;28;20024;-42
2022/05/22 03:34:29;;;;;;;62.92;24.60;;;;;;;7.97;99.46;101696.88;5093150;28;20032;-42
2022/05/22 03:36:55;;;;;;;52.20;23.02;;;;;;;7.97;99.31;101701.13;5093555;28;20371;-42
2022/05/22 03:39:21;;;;;;;48.28;23.63;;;;;;;7.96;99.31;101701.94;5093592;28;20020;-44
2022/05/22 03:41:46;;;;;;;45.63;23.23;;;;;;;7.92;98.78;101695.75;5092871;28;20039;-44
2022/05/22 03:44:11;;;;;;;55.10;23.85;;;;;;;7.91;98.84;101692.31;5093770;28;20024;-43
2022/05/22 03:46:37;;;;;;;56.28;24.33;;;;;;;7.88;98.66;101694.69;5093395;28;20506;-45
2022/05/22 03:49:03;;;;;;;42.70;22.08;;;;;;;7.86;98.59;101680.91;5092901;28;20356;-42
2022/05/22 03:51:28;;;;;;;44.97;21.20;;;;;;;7.80;97.95;101688.28;5093799;28;20055;-42
2022/05/22 03:53:54;;;;;;;45.55;22.30;;;;;;;7.81;98.04;101687.47;5092883;28;20119;-43
2022/05/22 03:56:20;;;;;;;45.45;21.50;;;;;;;7.74;97.91;101687.94;5092903;28;20028;-42
2022/05/22 03:58:46;;;;;;;48.05;22.48;;;;;;;7.71;97.97;101690.34;5093201;28;20028;-43
2022/05/22 04:01:12;;;;;;;45.83;23.02;;;;;;;7.66;97.61;101691.78;5093202;28;20481;-44
2022/05/22 04:03:40;;;;;;;39.25;22.15;;;;;;;7.67;98.40;101688.38;5092731;28;20555;-41
2022/05/22 04:06:11;;;;;;;55.28;24.15;;;;;;;7.64;99.09;101694.22;5093367;28;20102;-43
2022/05/22 04:08:37;;;;;;;57.38;26.95;;;;;;;7.65;99.37;101690.88;5093245;28;20081;-43
2022/05/22 04:11:07;;;;;;;53.28;25.67;;;;;;;7.65;99.86;101692.56;5092542;28;20044;-43
2022/05/22 04:13:33;;;;;;;53.00;24.60;;;;;;;7.71;100.00;101690.34;5093173;28;20020;-43
2022/05/22 04:15:58;;;;;;;49.70;26.58;;;;;;;7.70;99.88;101684.31;5092339;28;20379;-44
2022/05/22 04:18:23;;;;;;;51.13;26.10;;;;;;;7.70;100.00;101679.19;5093106;28;20067;-42
2022/05/22 04:20:48;;;;;;;59.83;27.30;;;;;;;7.76;100.00;101688.91;5092960;28;20468;-43
2022/05/22 04:25:59;;;;;;;62.00;28.15;;;;;;;7.85;100.00;101686.84;5092799;28;20035;-43
2022/05/22 04:28:26;;;;;;;59.00;28.88;;;;;;;7.93;100.00;101678.66;5093028;28;20373;-42
2022/05/22 04:30:51;;;;;;;58.05;28.25;;;;;;;7.99;100.00;101687.59;5092145;28;20028;-44
2022/05/22 04:33:17;;;;;;;53.80;28.17;;;;;;;8.04;100.00;101680.09;5093219;28;20027;-42
2022/05/22 04:35:43;;;;;;;68.15;31.02;;;;;;;8.09;100.00;101678.66;5092431;28;20032;-42
2022/05/22 04:38:10;;;;;;;68.93;33.08;;;;;;;8.20;100.00;101677.56;5092516;28;20030;-43
2022/05/22 04:40:37;;;;;;;67.22;31.25;;;;;;;8.29;100.00;101676.25;5092692;28;20028;-42
2022/05/22 04:43:04;;;;;;;;;;;;;;;8.33;100.00;101679.09;5093168;28;20034;-44
2022/05/22 04:45:29;;;;;;;69.93;31.50;;;;;;;8.40;100.00;101681.19;5092455;28;19918;-43
2022/05/22 04:47:55;;;;;;;67.10;31.10;;;;;;;8.47;100.00;101684.06;5092791;28;20020;-43
2022/05/22 04:50:20;;;;;;;80.03;32.35;;;;;;;8.51;100.00;101689.47;5093063;28;20108;-43
2022/05/22 04:52:45;;;;;;;69.40;33.80;;;;;;;8.57;100.00;101683.75;5096076;28;20044;-43
2022/05/22 04:55:11;;;;;;;78.35;35.47;;;;;;;8.63;100.00;101671.22;5096723;28;20024;-44
2022/05/22 04:57:37;;;;;;;68.97;36.05;;;;;;;8.73;100.00;101680.28;5096652;28;20024;-44
2022/05/22 05:00:09;;;;;;;73.88;35.42;;;;;;;8.76;100.00;101672.72;5096424;28;20032;-45
2022/05/22 05:02:35;;;;;;;78.25;34.90;;;;;;;8.83;100.00;101676.47;5096968;28;20024;-43
2022/05/22 05:05:00;;;;;;;79.07;36.63;;;;;;;8.88;100.00;101672.44;5096393;28;20107;-43
2022/05/22 05:07:25;;;;;;;74.10;35.42;;;;;;;8.94;100.00;101669.31;5096251;28;20432;-43
2022/05/22 05:09:51;;;;;;;69.93;35.50;;;;;;;8.97;100.00;101669.44;5096331;28;20020;-44
2022/05/22 05:12:17;;;;;;;76.47;38.50;;;;;;;9.03;100.00;101667.19;5096077;28;20431;-43
2022/05/22 05:14:43;;;;;;;87.78;39.83;;;;;;;9.09;100.00;101664.94;5096385;28;20035;-42
2022/05/22 05:17:12;;;;;;;84.70;43.13;;;;;;;9.16;100.00;101666.97;5096710;28;20028;-44
2022/05/22 05:19:38;;;;;;;101.80;41.95;;;;;;;9.22;100.00;101666.41;5095671;28;20028;-43
2022/05/22 05:22:03;;;;;;;97.22;44.38;;;;;;;9.31;100.00;101666.84;5096364;28;20478;-42
2022/05/22 05:24:28;;;;;;;94.40;40.67;;;;;;;9.40;100.00;101663.84;5096297;28;20077;-43
2022/05/22 05:26:55;;;;;;;89.03;41.28;;;;;;;9.47;100.00;101671.00;5095461;28;20390;-43
2022/05/22 05:29:21;;;;;;;86.82;42.38;;;;;;;9.57;100.00;101672.34;5096437;28;20051;-44
2022/05/22 05:31:46;;;;;;;86.35;43.08;;;;;;;9.67;100.00;101676.22;5095925;28;20479;-42
2022/05/22 05:34:11;;;;;;;89.57;42.63;;;;;;;9.75;100.00;101669.75;5095560;28;20036;-44
2022/05/22 05:36:38;;;;;;;92.07;40.83;;;;;;;9.83;100.00;101676.09;5096196;28;20024;-44
2022/05/22 05:39:04;;;;;;;83.85;41.38;;;;;;;9.92;100.00;101682.50;5095797;28;20431;-43
2022/05/22 05:41:29;;;;;;;93.78;43.50;;;;;;;9.96;100.00;101680.13;5095765;28;20122;-45
2022/05/22 05:43:54;;;;;;;92.93;42.20;;;;;;;10.05;100.00;101671.94;5095989;28;20043;-42
2022/05/22 05:46:20;;;;;;;87.22;42.47;;;;;;;10.09;100.00;101672.97;5095695;28;20090;-43
2022/05/22 05:48:45;;;;;;;82.72;42.00;;;;;;;10.15;100.00;101675.81;5095165;28;20028;-43
2022/05/22 05:51:13;;;;;;;84.95;41.42;;;;;;;10.20;100.00;101671.75;5095928;28;20024;-44
2022/05/22 05:53:38;;;;;;;81.40;41.13;;;;;;;10.27;100.00;101675.47;5095276;28;20491;-45
2022/05/22 05:56:04;;;;;;;83.20;41.22;;;;;;;10.34;100.00;101674.91;5095262;28;20031;-44
2022/05/22 05:58:30;;;;;;;97.95;44.05;;;;;;;10.43;100.00;101675.38;5095639;28;20028;-42
2022/05/22 06:00:55;;;;;;;90.93;44.47;;;;;;;10.51;100.00;101668.84;5095307;28;20044;-43
2022/05/22 06:03:20;;;;;;;93.22;44.47;;;;;;;10.60;100.00;101670.94;5094911;28;20035;-42
2022/05/22 06:05:47;;;;;;;83.57;43.13;;;;;;;10.69;100.00;101679.06;5095418;28;20022;-43
2022/05/22 06:08:12;;;;;;;88.90;45.97;;;;;;;10.80;100.00;101684.66;5095337;28;20047;-44
2022/05/22 06:10:38;;;;;;;77.25;42.08;;;;;;;10.87;100.00;101681.53;5095013;28;20455;-45
2022/05/22 06:13:04;;;;;;;79.93;40.90;;;;;;;10.95;99.67;101680.97;5095524;28;20024;-42
2022/05/22 06:15:29;;;;;;;84.18;42.78;;;;;;;11.04;99.46;101683.94;5094687;28;20067;-43
2022/05/22 06:17:56;;;;;;;84.13;40.83;;;;;;;11.10;99.16;101681.59;5095142;28;20093;-42
2022/05/22 06:20:22;;;;;;;76.10;37.55;;;;;;;11.16;96.36;101679.25;5095292;28;20089;-43
2022/05/22 06:22:47;;;;;;;78.18;38.42;;;;;;;11.25;96.06;101675.31;5094177;28;20075;-43
2022/05/22 06:25:15;;;;;;;96.35;38.45;;;;;;;11.35;95.78;101680.03;5095424;28;20498;-43
2022/05/22 06:27:43;;;;;;;69.57;35.72;;;;;;;11.42;94.56;101679.44;5095164;28;20024;-43
2022/05/22 06:30:12;;;;;;;77.22;37.45;;;;;;;11.50;94.41;101680.63;5094543;28;20058;-46
2022/05/22 06:32:39;;;;;;;77.68;38.90;;;;;;;11.62;95.11;101690.53;5095099;28;20042;-43
2022/05/22 06:35:05;;;;;;;74.40;37.45;;;;;;;11.74;94.62;101690.13;5094647;28;20028;-42
2022/05/22 06:37:30;;;;;;;74.63;36.13;;;;;;;11.77;92.11;101687.66;5094269;28;20028;-45
2022/05/22 06:39:56;;;;;;;78.57;40.17;;;;;;;11.90;94.70;101685.53;5094644;28;20017;-43
2022/05/22 06:42:30;;;;;;;72.43;35.42;;;;;;;12.01;92.07;101684.28;5094747;28;20067;-43
2022/05/22 06:45:06;;;;;;;71.50;32.88;;;;;;;12.25;91.61;101688.59;5093976;28;20404;-43
2022/05/22 06:47:34;;;;;;;74.57;32.95;;;;;;;12.47;90.32;101685.06;5094886;28;20063;-44
2022/05/22 06:50:01;;;;;;;66.65;33.50;;;;;;;12.60;87.96;101691.53;5094277;28;20031;-42
2022/05/22 06:52:26;;;;;;;62.17;33.10;;;;;;;12.65;86.76;101685.72;5094305;28;20060;-44
2022/05/22 06:54:52;;;;;;;57.80;29.52;;;;;;;12.72;85.75;101685.91;5094356;28;20063;-43
2022/05/22 06:57:19;;;;;;;54.95;29.25;;;;;;;12.80;84.71;101689.66;5094514;28;20028;-41
2022/05/22 06:59:45;;;;;;;;;;;;;;;12.90;86.07;101694.31;5094250;28;20034;-43
2022/05/22 07:02:12;;;;;;;62.70;30.83;;;;;;;12.95;83.80;101685.00;5094376;28;20305;-44
2022/05/22 07:04:37;;;;;;;57.60;30.35;;;;;;;13.04;82.12;101678.34;5093852;28;20050;-43
2022/05/22 07:07:03;;;;;;;60.58;32.63;;;;;;;13.16;84.79;101673.59;5094246;28;20028;-43
2022/05/22 07:09:28;;;;;;;60.67;32.08;;;;;;;13.28;84.84;101688.63;5094327;28;20395;-44
2022/05/22 07:11:54;;;;;;;58.92;29.58;;;;;;;13.43;82.07;101686.56;5093324;28;20099;-47
2022/05/22 07:14:20;;;;;;;51.55;28.65;;;;;;;13.47;79.37;101680.63;5093564;28;20111;-47
2022/05/22 07:16:45;;;;;;;64.72;28.90;;;;;;;13.56;79.64;101684.34;5093955;28;20111;-46
2022/05/22 07:19:12;;;;;;;62.63;30.25;;;;;;;13.71;79.81;101673.56;5093462;28;20107;-45
2022/05/22 07:21:37;;;;;;;56.65;28.67;;;;;;;13.87;78.15;101678.38;5094175;28;20052;-42
2022/05/22 07:24:03;;;;;;;51.45;26.90;;;;;;;14.03;77.41;101671.91;5094009;28;20063;-44
2022/05/22 07:26:29;;;;;;;52.08;27.75;;;;;;;14.26;76.93;101676.88;5093553;28;20437;-43
2022/05/22 07:28:58;;;;;;;53.67;27.27;;;;;;;14.42;75.51;101670.38;5093742;28;20025;-46
2022/05/22 07:31:24;;;;;;;57.67;27.00;;;;;;;14.68;74.65;101668.53;5093644;28;20036;-42
2022/05/22 07:33:50;;;;;;;58.80;24.80;;;;;;;14.85;73.80;101666.34;5093049;28;20035;-45
2022/05/22 07:36:16;;;;;;;44.67;23.00;;;;;;;14.96;72.04;101662.31;5093915;28;20032;-47
2022/05/22 07:38:42;;;;;;;56.42;24.80;;;;;;;15.02;72.34;101663.31;5093580;28;20027;-46
2022/05/22 07:41:08;;;;;;;51.13;22.63;;;;;;;15.03;72.46;101665.94;5093384;28;20107;-44
2022/05/22 07:43:33;;;;;;;57.38;27.27;;;;;;;15.17;75.40;101666.28;5093907;28;20039;-45
2022/05/22 07:45:59;;;;;;;56.05;26.90;;;;;;;15.30;73.67;101667.44;5093245;28;20035;-44
2022/05/22 07:48:24;;;;;;;43.28;21.33;;;;;;;15.36;68.95;101667.56;5093369;28;20091;-45
2022/05/22 07:50:54;;;;;;;49.28;21.90;;;;;;;15.39;68.46;101666.75;5093113;28;20541;-48
2022/05/22 07:53:20;;;;;;;50.28;21.40;;;;;;;15.50;69.87;101667.00;5093313;28;20060;-44
2022/05/22 07:55:45;;;;;;;53.30;22.52;;;;;;;15.71;71.68;101662.28;5092705;28;20046;-46
2022/05/22 07:58:11;;;;;;;118.88;46.47;;;;;;;15.91;71.16;101654.94;5093466;28;20081;-43
2022/05/22 08:00:36;;;;;;;52.88;24.88;;;;;;;16.07;69.50;101650.91;5093083;28;20054;-45
2022/05/22 08:03:07;;;;;;;49.58;22.58;;;;;;;16.17;69.06;101653.72;5092765;28;20470;-46
2022/05/22 08:05:33;;;;;;;47.03;21.58;;;;;;;16.22;67.00;101649.47;5093519;28;20020;-44
2022/05/22 08:07:58;;;;;;;76.90;34.53;;;;;;;16.30;68.47;101650.47;5092304;28;20032;-43
2022/05/22 08:10:23;;;;;;;50.67;19.60;;;;;;;16.37;64.48;101639.34;5093530;28;20039;-44
2022/05/22 08:12:49;;;;;;;35.50;16.92;;;;;;;16.52;65.52;101643.06;5092970;28;20020;-44
2022/05/22 08:15:18;;;;;;;44.25;19.52;;;;;;;16.62;67.03;101640.66;5092260;28;20467;-45
2022/05/22 08:17:44;;;;;;;53.15;19.60;;;;;;;16.76;64.68;101638.28;5093059;28;20031;-44
2022/05/22 08:20:13;;;;;;;40.10;18.70;;;;;;;16.83;64.61;101633.19;5093359;28;20020;-45
2022/05/22 08:22:40;;;;;;;42.47;16.45;;;;;;;16.89;61.65;101628.09;5092474;28;20028;-41
2022/05/22 08:25:06;;;;;;;40.22;17.83;;;;;;;16.98;63.04;101620.44;5092163;28;20039;-41
2022/05/22 08:27:32;;;;;;;40.08;18.00;;;;;;;17.10;62.38;101618.00;5092635;28;20028;-42
2022/05/22 08:29:57;;;;;;;42.67;19.65;;;;;;;17.24;64.17;101614.75;5092160;28;20031;-45
2022/05/22 08:32:23;;;;;;;38.05;16.92;;;;;;;17.35;60.58;101609.69;5093159;28;20419;-43
2022/05/22 08:34:48;;;;;;;38.63;16.70;;;;;;;17.51;61.81;101608.16;5092630;28;20028;-46
2022/05/22 08:37:13;;;;;;;36.35;12.30;;;;;;;17.63;58.67;101603.09;5092334;28;20471;-41
2022/05/22 08:39:39;;;;;;;26.92;10.57;;;;;;;17.77;57.54;101598.91;5092843;28;20028;-43
2022/05/22 08:42:10;;;;;;;26.23;12.75;;;;;;;17.87;57.61;101592.09;5092536;28;20035;-41
2022/05/22 08:44:35;;;;;;;29.80;13.32;;;;;;;17.96;57.18;101588.75;5092323;28;20028;-44
2022/05/22 08:47:13;;;;;;;55.22;27.73;;;;;;;18.02;58.28;101588.78;5092814;28;20024;-42
2022/05/22 08:50:10;;;;;;;56.92;26.15;;;;;;;18.32;60.09;101583.88;5092604;28;20020;-43
2022/05/22 08:52:35;;;;;;;35.97;16.17;;;;;;;18.41;55.42;101578.72;5088126;28;20044;-43
2022/05/22 08:55:08;;;;;;;32.60;15.77;;;;;;;18.62;57.10;101579.78;5092717;28;20387;-42
2022/05/22 09:00:32;;;;;;;44.08;16.52;;;;;;;18.81;53.59;101579.06;5093236;28;20506;-42
2022/05/22 09:03:08;;;;;;;44.67;17.15;;;;;;;18.90;53.67;101573.94;5092226;28;20028;-43
2022/05/22 09:05:34;;;;;;;37.58;15.98;;;;;;;19.13;53.26;101569.72;5092394;28;20043;-43
2022/05/22 09:08:16;;;;;;;49.08;18.60;;;;;;;19.33;54.61;101568.09;5092584;28;20052;-43
2022/05/22 09:10:48;;;;;;;34.85;15.88;;;;;;;19.39;53.33;101567.22;5092422;28;20494;-43
2022/05/22 09:13:34;;;;;;;37.53;15.77;;;;;;;19.47;54.60;101564.66;5092170;28;20036;-44
2022/05/22 09:16:20;;;;;;;39.95;16.45;;;;;;;19.57;52.74;101562.09;5092421;28;20032;-43
2022/05/22 09:19:35;;;;;;;42.85;15.93;;;;;;;19.86;53.87;101550.88;5091929;28;20052;-44
2022/05/22 09:22:03;;;;;;;42.40;15.77;;;;;;;20.10;50.69;101561.38;5049974;28;20524;-42
2022/05/22 09:24:47;;;;;;;33.55;15.10;;;;;;;20.34;52.59;101553.53;5049895;28;20505;-46
2022/05/22 09:27:44;;;;;;;38.50;16.08;;;;;;;20.50;53.51;101554.44;5074822;28;20037;-47
2022/05/22 09:30:33;;;;;;;37.92;13.70;;;;;;;20.62;49.81;101550.03;5090773;28;20040;-45
2022/05/22 09:33:25;;;;;;;28.85;13.18;;;;;;;20.87;50.63;101543.91;5091872;28;20089;-44
2022/05/22 09:35:57;;;;;;;34.80;14.57;;;;;;;20.97;47.24;101539.53;5092224;28;20055;-43
2022/05/22 09:39:13;;;;;;;42.53;14.30;;;;;;;21.23;50.82;101538.59;5095555;28;20072;-44
2022/05/22 09:42:05;;;;;;;34.70;14.48;;;;;;;21.17;47.45;101533.34;5085850;28;20118;-43
2022/05/22 09:44:59;;;;;;;35.58;14.45;;;;;;;21.29;46.73;101530.72;5095675;28;20391;-43
2022/05/22 09:47:46;;;;;;;39.88;14.52;;;;;;;21.84;49.15;101536.56;5090661;28;20475;-46
2022/05/22 09:50:20;;;;;;;38.22;15.27;;;;;;;21.93;48.03;101530.38;5095973;28;20410;-43
2022/05/22 09:53:07;;;;;;;40.80;20.20;;;;;;;21.79;46.32;101527.84;5095315;28;20044;-44
2022/05/22 09:55:50;;;;;;;54.67;24.52;;;;;;;21.66;47.03;101525.28;5095210;28;20383;-44
2022/05/22 09:58:30;;;;;;;54.15;22.60;;;;;;;21.68;46.98;101526.16;5095939;28;20016;-43
2022/05/22 10:01:11;;;;;;;41.28;19.67;;;;;;;21.75;46.04;101524.38;5095057;28;20116;-43
2022/05/22 10:04:24;;;;;;;35.38;15.60;;;;;;;22.29;46.36;101528.38;5095641;28;20475;-44
2022/05/22 10:07:01;;;;;;;33.47;13.20;;;;;;;22.29;42.07;101526.59;5078320;28;20130;-44
2022/05/22 10:09:38;;;;;;;30.23;13.50;;;;;;;22.26;42.36;101534.53;5095151;28;20028;-43
2022/05/22 10:12:18;;;;;;;34.90;13.55;;;;;;;22.39;41.48;101534.44;5095319;28;20047;-42
2022/05/22 10:14:49;;;;;;;29.75;13.80;;;;;;;22.61;41.68;101535.13;5094635;28;20107;-44
2022/05/22 10:17:23;;;;;;;43.25;15.70;;;;;;;23.20;43.55;101530.13;5095777;28;20063;-43
2022/05/22 10:20:21;;;;;;;34.88;15.60;;;;;;;24.08;43.19;101525.41;5094820;28;20411;-44
2022/05/22 10:23:04;;;;;;;27.33;13.60;;;;;;;25.14;39.86;101520.03;5094718;28;20044;-47
2022/05/22 10:25:48;;;;;;;29.48;14.05;;;;;;;25.33;35.19;101519.63;5095453;28;20051;-43
2022/05/22 10:28:19;;;;;;;36.60;13.55;;;;;;;25.89;36.61;101516.66;5095107;28;20063;-45
2022/05/22 10:30:56;;;;;;;38.67;13.98;;;;;;;26.88;35.68;101507.09;5094292;28;20387;-44
2022/05/22 10:33:27;;;;;;;36.25;13.13;;;;;;;27.82;32.95;101508.69;5095321;28;20032;-43
2022/05/22 10:36:09;;;;;;;34.85;14.48;;;;;;;28.74;33.60;101506.50;5094201;28;20104;-44
2022/05/22 10:38:40;;;;;;;35.15;13.75;;;;;;;28.41;29.25;101504.97;5095063;28;20032;-44
2022/05/22 10:44:06;;;;;;;31.67;12.60;;;;;;;28.47;31.37;101503.91;5094408;28;20554;-45
2022/05/22 10:46:31;;;;;;;42.72;18.20;;;;;;;28.80;31.11;101495.69;5094969;28;20115;-43
2022/05/22 10:48:57;;;;;;;28.00;12.95;;;;;;;28.96;31.01;101482.72;5093279;28;20201;-45
2022/05/22 10:51:25;;;;;;;33.70;15.10;;;;;;;29.59;28.99;101481.22;5094207;28;20020;-43
2022/05/22 10:53:56;;;;;;;26.40;12.45;;;;;;;29.73;27.81;101473.53;5094357;28;20119;-42
2022/05/22 10:56:34;;;;;;;30.98;12.73;;;;;;;29.51;28.02;101477.06;5094553;28;20036;-45
2022/05/22 10:59:03;;;;;;;29.02;12.23;;;;;;;29.21;27.72;101465.84;5093898;28;20036;-48
2022/05/22 11:01:32;;;;;;;28.20;12.43;;;;;;;28.93;27.64;101463.41;5094579;28;20387;-44
2022/05/22 11:04:03;;;;;;;26.83;11.80;;;;;;;29.00;28.98;101460.44;5093471;28;20020;-45
2022/05/22 11:06:29;;;;;;;26.48;12.10;;;;;;;29.55;28.62;101457.44;5094659;28;20064;-46
2022/05/22 11:08:55;;;;;;;42.67;12.80;;;;;;;30.13;27.44;101458.59;5093950;28;20125;-44
2022/05/22 11:11:31;;;;;;;27.20;12.30;;;;;;;30.01;28.60;101454.69;5094101;28;20020;-49
2022/05/22 11:14:19;;;;;;;27.50;10.88;;;;;;;30.40;27.19;101455.69;5093965;28;20427;-46
2022/05/22 11:16:44;;;;;;;29.42;10.32;;;;;;;30.48;27.47;101460.69;5093907;28;20058;-46
2022/05/22 11:19:30;;;;;;;24.20;9.85;;;;;;;31.85;28.19;101454.25;5093901;28;20064;-44
2022/05/22 11:21:58;;;;;;;24.83;10.18;;;;;;;31.58;24.53;101452.94;5093646;28;20036;-47
2022/05/22 11:24:32;;;;;;;23.25;9.60;;;;;;;30.87;25.24;101443.81;5093866;28;20499;-47
2022/05/22 11:27:39;;;;;;;24.83;10.10;;;;;;;31.02;28.76;101447.56;5093280;28;20020;-46
2022/05/22 11:30:20;;;;;;;27.27;11.13;;;;;;;30.80;26.71;101435.28;5090679;28;20491;-49
2022/05/22 11:33:16;;;;;;;25.48;10.20;;;;;;;31.10;27.75;101425.94;5093328;28;20020;-44
2022/05/22 11:35:44;;;;;;;;;;;;;;;31.37;26.50;101421.09;5094386;28;20031;-44